createdAt,value
2017-06-04T00:01:50.759Z,8.80
2017-06-04T00:04:18.308Z,8.50
2017-06-04T00:06:45.853Z,7.63
2017-06-04T00:09:13.391Z,10.27
2017-06-04T00:11:40.924Z,8.40
2017-06-04T00:14:08.469Z,8.30
2017-06-04T00:16:36.008Z,8.27
2017-06-04T00:19:03.546Z,10.63
2017-06-04T00:21:31.085Z,8.30
2017-06-04T00:23:59.403Z,7.83
2017-06-04T00:26:26.944Z,8.83
2017-06-04T00:28:54.548Z,10.20
2017-06-04T00:31:22.084Z,12.40
2017-06-04T00:33:49.619Z,8.50
2017-06-04T00:36:17.200Z,8.37
2017-06-04T00:38:44.744Z,7.77
2017-06-04T00:41:12.280Z,8.53
2017-06-04T00:43:40.583Z,9.07
2017-06-04T00:46:08.124Z,9.23
2017-06-04T00:48:36.425Z,10.23
2017-06-04T00:51:03.972Z,9.40
2017-06-04T00:53:31.507Z,9.43
2017-06-04T00:55:59.812Z,11.50
2017-06-04T00:58:27.352Z,10.73
2017-06-04T01:00:54.887Z,9.10
2017-06-04T01:03:22.438Z,10.23
2017-06-04T01:05:49.975Z,11.50
2017-06-04T01:08:17.513Z,10.30
2017-06-04T01:10:45.058Z,10.63
2017-06-04T01:13:12.595Z,12.13
2017-06-04T01:15:40.911Z,10.70
2017-06-04T01:18:08.455Z,18.20
2017-06-04T01:20:35.996Z,11.40
2017-06-04T01:23:04.326Z,10.77
2017-06-04T01:25:31.862Z,14.33
2017-06-04T01:27:59.411Z,13.17
2017-06-04T01:30:26.943Z,11.03
2017-06-04T01:32:55.255Z,11.90
2017-06-04T01:35:22.795Z,13.27
2017-06-04T01:37:50.335Z,11.27
2017-06-04T01:40:18.685Z,12.50
2017-06-04T01:42:46.235Z,11.70
2017-06-04T01:45:13.768Z,12.00
2017-06-04T01:47:41.316Z,14.17
2017-06-04T01:50:08.859Z,12.07
2017-06-04T01:52:36.407Z,11.57
2017-06-04T01:55:04.712Z,12.33
2017-06-04T01:57:32.263Z,12.63
2017-06-04T01:59:59.807Z,12.43
2017-06-04T02:02:27.369Z,14.53
2017-06-04T02:04:54.927Z,13.57
2017-06-04T02:07:22.471Z,12.77
2017-06-04T02:09:50.784Z,12.13
2017-06-04T02:12:18.327Z,13.63
2017-06-04T02:14:45.876Z,13.10
2017-06-04T02:17:13.423Z,16.77
2017-06-04T02:19:41.743Z,18.90
2017-06-04T02:22:09.298Z,14.40
2017-06-04T02:24:36.840Z,13.90
2017-06-04T02:27:04.383Z,13.43
2017-06-04T02:29:32.703Z,14.53
2017-06-04T02:32:00.243Z,17.10
2017-06-04T02:34:27.791Z,16.00
2017-06-04T02:36:55.332Z,15.43
2017-06-04T02:39:23.644Z,16.30
2017-06-04T02:41:51.193Z,14.23
2017-06-04T02:44:18.732Z,15.17
2017-06-04T02:46:46.351Z,15.03
2017-06-04T02:49:13.887Z,15.73
2017-06-04T02:51:41.455Z,17.53
2017-06-04T02:54:09.019Z,15.17
2017-06-04T02:56:36.558Z,14.37
2017-06-04T02:59:04.100Z,15.93
2017-06-04T03:01:31.643Z,14.97
2017-06-04T03:03:59.188Z,15.40
2017-06-04T03:06:27.528Z,16.27
2017-06-04T03:08:55.083Z,13.60
2017-06-04T03:11:22.680Z,15.13
2017-06-04T03:13:50.992Z,14.30
2017-06-04T03:16:18.531Z,15.07
2017-06-04T03:18:46.081Z,15.03
2017-06-04T03:21:14.392Z,16.90
2017-06-04T03:23:41.947Z,14.87
2017-06-04T03:26:09.488Z,15.30
2017-06-04T03:28:37.026Z,14.90
2017-06-04T03:31:05.344Z,15.90
2017-06-04T03:33:32.891Z,15.27
2017-06-04T03:36:00.427Z,20.63
2017-06-04T03:38:28.043Z,16.00
2017-06-04T03:40:55.586Z,14.43
2017-06-04T03:43:23.143Z,15.33
2017-06-04T03:45:50.675Z,14.53
2017-06-04T03:48:18.215Z,14.70
2017-06-04T03:50:46.524Z,15.37
2017-06-04T03:53:14.062Z,14.80
2017-06-04T03:55:41.615Z,15.17
2017-06-04T03:58:09.919Z,14.50
2017-06-04T04:00:37.466Z,15.60
2017-06-04T04:03:05.009Z,15.93
2017-06-04T04:05:33.317Z,17.67
2017-06-04T04:08:00.892Z,16.27
2017-06-04T04:10:28.440Z,15.43
2017-06-04T04:12:55.983Z,15.97
2017-06-04T04:15:23.525Z,14.47
2017-06-04T04:17:51.074Z,19.47
2017-06-04T04:20:19.396Z,16.67
2017-06-04T04:22:46.940Z,17.03
2017-06-04T04:25:14.492Z,18.20
2017-06-04T04:27:42.043Z,16.00
2017-06-04T04:30:09.592Z,15.47
2017-06-04T04:32:37.916Z,15.90
2017-06-04T04:35:05.456Z,16.20
2017-06-04T04:37:32.998Z,17.83
2017-06-04T04:40:00.543Z,17.23
2017-06-04T04:42:28.849Z,17.07
2017-06-04T04:44:56.399Z,15.40
2017-06-04T04:47:23.936Z,16.07
2017-06-04T04:49:52.254Z,15.03
2017-06-04T04:52:19.801Z,15.63
2017-06-04T04:54:47.347Z,15.10
2017-06-04T04:57:14.901Z,15.77
2017-06-04T04:59:42.439Z,16.27
2017-06-04T05:02:10.753Z,16.70
2017-06-04T05:04:38.291Z,17.20
2017-06-04T05:07:06.515Z,16.80
2017-06-04T05:09:34.081Z,17.33
2017-06-04T05:12:01.629Z,17.17
2017-06-04T05:14:29.167Z,17.57
2017-06-04T05:16:56.711Z,16.60
2017-06-04T05:19:24.259Z,15.80
2017-06-04T05:21:51.807Z,18.27
2017-06-04T05:24:20.117Z,17.43
2017-06-04T05:26:47.657Z,22.27
2017-06-04T05:29:15.199Z,15.20
2017-06-04T05:31:43.500Z,16.13
2017-06-04T05:34:11.048Z,17.47
2017-06-04T05:36:38.599Z,17.30
2017-06-04T05:39:06.192Z,15.57
2017-06-04T05:41:33.736Z,17.57
2017-06-04T05:44:01.276Z,16.43
2017-06-04T05:46:28.829Z,14.80
2017-06-04T05:48:57.138Z,15.67
2017-06-04T05:51:24.717Z,17.50
2017-06-04T05:53:52.259Z,15.47
2017-06-04T05:56:19.803Z,19.00
2017-06-04T05:58:47.352Z,15.70
2017-06-04T06:01:14.888Z,15.80
2017-06-04T06:03:43.239Z,15.47
2017-06-04T06:06:10.795Z,13.53
2017-06-04T06:08:38.345Z,19.17
2017-06-04T06:11:05.907Z,15.43
2017-06-04T06:13:33.444Z,15.10
2017-06-04T06:16:00.991Z,15.50
2017-06-04T06:18:28.543Z,15.43
2017-06-04T06:20:56.083Z,14.63
2017-06-04T06:23:24.396Z,14.57
2017-06-04T06:25:51.940Z,16.97
2017-06-04T06:28:19.479Z,15.50
2017-06-04T06:30:47.785Z,15.67
2017-06-04T06:33:15.336Z,15.53
2017-06-04T06:35:42.892Z,15.50
2017-06-04T06:38:10.442Z,17.20
2017-06-04T06:40:37.984Z,15.00
2017-06-04T06:43:06.295Z,16.23
2017-06-04T06:45:33.847Z,15.43
2017-06-04T06:48:01.400Z,22.03
2017-06-04T06:50:28.943Z,18.00
2017-06-04T06:52:57.251Z,14.43
2017-06-04T06:55:24.792Z,18.03
2017-06-04T06:57:52.343Z,16.20
2017-06-04T07:00:19.897Z,16.80
2017-06-04T07:02:48.204Z,18.20
2017-06-04T07:05:15.751Z,17.87
2017-06-04T07:07:43.291Z,20.17
2017-06-04T07:10:10.852Z,16.27
2017-06-04T07:12:38.400Z,15.53
2017-06-04T07:15:06.699Z,16.73
2017-06-04T07:17:34.239Z,18.60
2017-06-04T07:20:02.545Z,17.27
2017-06-04T07:22:30.087Z,14.77
2017-06-04T07:24:57.639Z,15.47
2017-06-04T07:27:25.188Z,21.57
2017-06-04T07:29:53.492Z,14.40
2017-06-04T07:32:21.049Z,15.43
2017-06-04T07:34:48.583Z,13.90
2017-06-04T07:37:16.926Z,15.23
2017-06-04T07:39:45.095Z,13.87
2017-06-04T07:42:12.645Z,14.13
2017-06-04T07:44:40.290Z,13.80
2017-06-04T07:47:08.260Z,13.93
2017-06-04T07:49:38.427Z,15.00
2017-06-04T07:52:06.741Z,14.97
2017-06-04T07:54:34.280Z,14.80
2017-06-04T07:57:02.586Z,13.83
2017-06-04T07:59:30.119Z,13.77
2017-06-04T08:01:57.672Z,14.07
2017-06-04T08:04:25.978Z,13.93
2017-06-04T08:06:53.520Z,14.23
2017-06-04T08:09:21.067Z,12.97
2017-06-04T08:11:49.371Z,13.00
2017-06-04T08:14:16.923Z,13.80
2017-06-04T08:16:44.464Z,17.30
2017-06-04T08:19:12.007Z,12.50
2017-06-04T08:21:40.316Z,13.37
2017-06-04T08:24:07.860Z,13.33
2017-06-04T08:26:35.410Z,12.40
2017-06-04T08:29:03.721Z,12.03
2017-06-04T08:31:31.264Z,11.93
2017-06-04T08:33:58.808Z,12.60
2017-06-04T08:36:26.351Z,10.67
2017-06-04T08:38:54.680Z,11.37
2017-06-04T08:41:22.220Z,15.00
2017-06-04T08:43:49.772Z,11.33
2017-06-04T08:46:17.316Z,13.40
2017-06-04T08:48:45.621Z,13.50
2017-06-04T08:51:13.176Z,12.00
2017-06-04T08:53:40.707Z,12.23
2017-06-04T08:56:09.009Z,11.50
2017-06-04T08:58:36.544Z,9.87
2017-06-04T09:01:04.860Z,12.03
2017-06-04T09:03:32.431Z,11.73
2017-06-04T09:05:59.971Z,11.50
2017-06-04T09:08:27.516Z,11.03
2017-06-04T09:10:55.055Z,9.87
2017-06-04T09:13:23.361Z,11.07
2017-06-04T09:15:50.913Z,18.67
2017-06-04T09:18:18.463Z,10.83
2017-06-04T09:20:46.059Z,11.13
2017-06-04T09:23:13.591Z,10.60
2017-06-04T09:25:41.126Z,9.80
2017-06-04T09:28:09.443Z,12.20
2017-06-04T09:30:36.983Z,10.03
2017-06-04T09:33:04.532Z,11.23
2017-06-04T09:35:32.067Z,10.07
2017-06-04T09:38:00.367Z,9.20
2017-06-04T09:40:27.915Z,10.00
2017-06-04T09:42:55.456Z,9.80
2017-06-04T09:45:23.772Z,10.10
2017-06-04T09:47:51.306Z,10.10
2017-06-04T09:50:19.607Z,10.23
2017-06-04T09:52:47.147Z,11.20
2017-06-04T09:55:14.695Z,12.20
2017-06-04T09:57:42.999Z,10.43
2017-06-04T10:00:10.539Z,10.57
2017-06-04T10:02:38.093Z,10.13
2017-06-04T10:05:06.403Z,10.03
2017-06-04T10:07:33.943Z,10.93
2017-06-04T10:10:01.551Z,9.47
2017-06-04T10:12:29.084Z,9.03
2017-06-04T10:14:56.621Z,9.90
2017-06-04T10:17:24.172Z,10.27
2017-06-04T10:19:51.711Z,7.87
2017-06-04T10:22:20.021Z,8.87
2017-06-04T10:24:47.560Z,8.13
2017-06-04T10:27:15.866Z,8.27
2017-06-04T10:29:43.407Z,8.83
2017-06-04T10:32:10.959Z,11.17
2017-06-04T10:34:38.511Z,8.80
2017-06-04T10:37:06.816Z,8.47
2017-06-04T10:39:34.353Z,8.03
2017-06-04T10:42:01.895Z,9.27
2017-06-04T10:44:30.204Z,10.30
2017-06-04T10:46:57.743Z,9.10
2017-06-04T10:49:25.284Z,9.23
2017-06-04T10:51:53.595Z,9.83
2017-06-04T10:54:21.139Z,10.23
2017-06-04T10:56:48.679Z,13.33
2017-06-04T10:59:16.983Z,10.73
2017-06-04T11:01:44.577Z,10.30
2017-06-04T11:04:12.123Z,10.10
2017-06-04T11:06:39.667Z,10.43
2017-06-04T11:09:07.199Z,10.60
2017-06-04T11:11:35.503Z,11.60
2017-06-04T11:14:03.044Z,12.57
2017-06-04T11:16:30.652Z,12.30
2017-06-04T11:18:58.210Z,10.77
2017-06-04T11:21:25.748Z,9.47
2017-06-04T11:23:53.287Z,11.50
2017-06-04T11:26:20.819Z,9.93
2017-06-04T11:28:49.132Z,10.83
2017-06-04T11:31:16.680Z,10.63
2017-06-04T11:33:44.277Z,10.03
2017-06-04T11:36:11.831Z,10.00
2017-06-04T11:38:39.363Z,9.57
2017-06-04T11:41:06.905Z,9.87
2017-06-04T11:43:34.452Z,10.77
2017-06-04T11:46:02.757Z,10.80
2017-06-04T11:48:30.295Z,10.40
2017-06-04T11:50:58.604Z,10.83
2017-06-04T11:53:26.147Z,11.20
2017-06-04T11:55:54.364Z,10.83
2017-06-04T11:58:21.957Z,10.57
2017-06-04T12:00:50.275Z,10.90
2017-06-04T12:03:17.815Z,10.13
2017-06-04T12:05:45.369Z,11.27
2017-06-04T12:08:12.907Z,10.00
2017-06-04T12:10:42.114Z,12.93
2017-06-04T12:13:09.768Z,11.10
2017-06-04T12:15:39.077Z,10.97
2017-06-04T12:18:07.015Z,10.70
2017-06-04T12:20:34.833Z,10.13
2017-06-04T12:23:02.383Z,10.20
2017-06-04T12:25:30.273Z,10.20
2017-06-04T12:27:58.944Z,10.87
2017-06-04T12:30:26.479Z,10.00
2017-06-04T12:32:54.809Z,11.33
2017-06-04T12:35:22.346Z,10.70
2017-06-04T12:37:49.881Z,9.87
2017-06-04T12:40:17.487Z,10.03
2017-06-04T12:42:45.838Z,9.87
2017-06-04T12:45:13.400Z,9.83
2017-06-04T12:47:40.951Z,8.50
2017-06-04T12:50:08.489Z,8.73
2017-06-04T12:52:36.029Z,9.60
2017-06-04T12:55:04.339Z,11.50
2017-06-04T12:57:31.883Z,8.80
2017-06-04T12:59:59.472Z,9.10
2017-06-04T13:02:27.011Z,8.20
2017-06-04T13:04:54.556Z,9.40
2017-06-04T13:07:22.103Z,8.93
2017-06-04T13:09:50.444Z,9.77
2017-06-04T13:12:17.981Z,9.10
2017-06-04T13:14:45.520Z,9.00
2017-06-04T13:17:13.063Z,8.40
2017-06-04T13:19:41.367Z,8.93
2017-06-04T13:22:09.042Z,7.03
2017-06-04T13:24:37.523Z,7.37
2017-06-04T13:27:05.861Z,8.07
2017-06-04T13:29:34.291Z,7.50
2017-06-04T13:32:01.828Z,6.73
2017-06-04T13:34:29.375Z,5.90
2017-06-04T13:36:56.919Z,6.13
2017-06-04T13:39:24.467Z,6.20
2017-06-04T13:41:52.770Z,7.17
2017-06-04T13:44:20.300Z,6.80
2017-06-04T13:46:48.620Z,6.10
2017-06-04T13:49:16.156Z,7.83
2017-06-04T13:51:44.224Z,7.13
2017-06-04T13:54:12.196Z,6.20
2017-06-04T13:56:39.747Z,6.53
2017-06-04T13:59:07.295Z,6.20
2017-06-04T14:01:35.606Z,6.97
2017-06-04T14:04:03.146Z,8.07
2017-06-04T14:06:30.683Z,6.53
2017-06-04T14:08:58.239Z,7.40
2017-06-04T14:11:26.549Z,6.50
2017-06-04T14:13:54.079Z,8.53
2017-06-04T14:16:22.392Z,7.03
2017-06-04T14:18:49.928Z,7.20
2017-06-04T14:21:17.469Z,8.60
2017-06-04T14:23:45.792Z,7.73
2017-06-04T14:26:13.372Z,10.37
2017-06-04T14:28:40.907Z,10.20
2017-06-04T14:31:08.445Z,15.63
2017-06-04T14:33:36.592Z,17.70
2017-06-04T14:36:05.669Z,8.57
2017-06-04T14:38:33.516Z,4.30
2017-06-04T14:41:01.050Z,2.80
2017-06-04T14:43:28.590Z,5.00
2017-06-04T14:45:57.039Z,3.63
2017-06-04T14:48:24.583Z,3.17
2017-06-04T14:50:52.135Z,3.80
2017-06-04T14:53:19.671Z,3.03
2017-06-04T14:55:47.255Z,3.20
2017-06-04T14:58:14.791Z,2.70
2017-06-04T15:00:42.328Z,3.20
2017-06-04T15:03:09.877Z,2.93
2017-06-04T15:05:37.411Z,3.20
2017-06-04T15:08:04.946Z,3.30
2017-06-04T15:10:32.488Z,2.80
2017-06-04T15:13:00.572Z,2.97
2017-06-04T15:15:28.116Z,3.53
2017-06-04T15:17:56.126Z,3.07
2017-06-04T15:20:23.659Z,3.70
2017-06-04T15:22:51.196Z,3.03
2017-06-04T15:25:18.737Z,3.73
2017-06-04T15:27:46.283Z,3.60
2017-06-04T15:30:13.844Z,3.27
2017-06-04T15:32:41.391Z,3.87
2017-06-04T15:35:09.995Z,3.83
2017-06-04T15:37:37.557Z,4.33
2017-06-04T15:40:05.101Z,4.00
2017-06-04T15:42:32.660Z,3.77
2017-06-04T15:45:00.215Z,4.10
2017-06-04T15:47:27.771Z,3.83
2017-06-04T15:49:56.075Z,4.30
2017-06-04T15:52:23.616Z,4.70
2017-06-04T15:54:51.167Z,4.23
2017-06-04T15:57:19.590Z,4.40
2017-06-04T15:59:48.058Z,4.50
2017-06-04T16:02:15.599Z,4.70
2017-06-04T16:04:43.180Z,5.40
2017-06-04T16:07:10.716Z,4.00
2017-06-04T16:09:38.272Z,4.10
2017-06-04T16:12:05.820Z,4.97
2017-06-04T16:14:34.119Z,4.00
2017-06-04T16:17:01.672Z,5.07
2017-06-04T16:19:29.229Z,4.50
2017-06-04T16:21:56.771Z,4.47
2017-06-04T16:24:25.075Z,5.10
2017-06-04T16:26:52.607Z,4.60
2017-06-04T16:29:20.956Z,5.70
2017-06-04T16:31:48.493Z,5.17
2017-06-04T16:34:16.033Z,5.67
2017-06-04T16:36:43.575Z,9.13
2017-06-04T16:39:11.123Z,4.93
2017-06-04T16:41:40.499Z,5.43
2017-06-04T16:44:08.040Z,4.70
2017-06-04T16:46:35.581Z,7.80
2017-06-04T16:49:03.340Z,5.83
2017-06-04T16:51:31.914Z,6.33
2017-06-04T16:53:59.460Z,4.37
2017-06-04T16:56:27.570Z,5.43
2017-06-04T16:58:55.111Z,11.33
2017-06-04T17:01:22.652Z,6.00
2017-06-04T17:03:50.198Z,5.63
2017-06-04T17:06:17.744Z,5.67
2017-06-04T17:08:46.079Z,5.77
2017-06-04T17:11:13.620Z,5.90
2017-06-04T17:13:41.171Z,6.43
2017-06-04T17:16:09.788Z,6.00
2017-06-04T17:18:37.479Z,5.20
2017-06-04T17:21:05.234Z,6.23
2017-06-04T17:23:32.844Z,4.90
2017-06-04T17:26:00.397Z,5.93
2017-06-04T17:28:27.935Z,5.27
2017-06-04T17:30:55.487Z,5.03
2017-06-04T17:33:23.799Z,6.67
2017-06-04T17:35:51.331Z,6.27
2017-06-04T17:38:18.880Z,4.70
2017-06-04T17:40:47.189Z,3.40
2017-06-04T17:43:14.739Z,3.90
2017-06-04T17:45:42.272Z,3.63
2017-06-04T17:48:10.582Z,3.93
2017-06-04T17:50:38.124Z,3.63
2017-06-04T17:53:05.669Z,4.80
2017-06-04T17:55:33.979Z,4.90
2017-06-04T17:58:01.525Z,4.20
2017-06-04T18:00:29.080Z,3.77
2017-06-04T18:02:56.632Z,4.83
2017-06-04T18:05:24.251Z,4.50
2017-06-04T18:07:51.802Z,4.87
2017-06-04T18:10:19.352Z,5.60
2017-06-04T18:12:46.888Z,5.60
2017-06-04T18:15:14.470Z,4.43
2017-06-04T18:17:42.011Z,3.90
2017-06-04T18:20:09.559Z,4.20
2017-06-04T18:22:37.102Z,3.50
2017-06-04T18:25:04.647Z,4.40
2017-06-04T18:27:32.957Z,3.10
2017-06-04T18:30:00.508Z,2.63
2017-06-04T18:32:28.076Z,2.27
2017-06-04T18:34:55.623Z,2.83
2017-06-04T18:37:23.159Z,2.50
2017-06-04T18:39:51.479Z,3.13
2017-06-04T18:42:19.011Z,2.67
2017-06-04T18:44:46.559Z,3.53
2017-06-04T18:47:14.099Z,3.33
2017-06-04T18:49:41.646Z,3.30
2017-06-04T18:52:09.235Z,4.30
2017-06-04T18:54:37.542Z,3.93
2017-06-04T18:57:05.098Z,4.40
2017-06-04T18:59:32.649Z,4.23
2017-06-04T19:02:00.215Z,4.83
2017-06-04T19:04:27.752Z,4.90
2017-06-04T19:06:55.607Z,5.57
2017-06-04T19:09:23.941Z,5.30
2017-06-04T19:11:51.493Z,4.93
2017-06-04T19:14:19.041Z,4.60
2017-06-04T19:16:46.582Z,5.40
2017-06-04T19:19:14.123Z,6.00
2017-06-04T19:21:41.660Z,5.63
2017-06-04T19:24:09.216Z,7.03
2017-06-04T19:26:36.764Z,7.40
2017-06-04T19:29:04.330Z,10.83
2017-06-04T19:31:31.873Z,10.03
2017-06-04T19:33:59.416Z,13.80
2017-06-04T19:36:26.956Z,17.40
2017-06-04T19:38:54.504Z,16.77
2017-06-04T19:41:22.065Z,17.97
2017-06-04T19:43:49.616Z,18.33
2017-06-04T19:46:17.158Z,17.73
2017-06-04T19:48:45.496Z,18.13
2017-06-04T19:51:13.056Z,16.70
2017-06-04T19:53:40.604Z,16.83
2017-06-04T19:56:08.153Z,14.60
2017-06-04T19:58:35.696Z,14.43
2017-06-04T20:01:03.236Z,13.70
2017-06-04T20:03:31.547Z,13.50
2017-06-04T20:05:59.133Z,14.33
2017-06-04T20:08:26.735Z,13.63
2017-06-04T20:10:54.288Z,13.37
2017-06-04T20:13:22.604Z,13.30
2017-06-04T20:15:50.967Z,12.60
2017-06-04T20:18:18.515Z,12.50
2017-06-04T20:20:46.100Z,12.03
2017-06-04T20:23:13.650Z,12.20
2017-06-04T20:25:41.200Z,12.00
2017-06-04T20:28:08.743Z,13.43
2017-06-04T20:30:36.284Z,14.23
2017-06-04T20:33:04.602Z,13.77
2017-06-04T20:35:32.192Z,13.00
2017-06-04T20:37:59.852Z,13.87
2017-06-04T20:40:27.417Z,12.13
2017-06-04T20:42:54.961Z,12.30
2017-06-04T20:45:23.298Z,13.50
2017-06-04T20:47:50.851Z,16.27
2017-06-04T20:50:18.432Z,21.13
2017-06-04T20:52:45.988Z,28.80
2017-06-04T20:55:13.531Z,27.10
2017-06-04T20:57:41.083Z,25.43
2017-06-04T21:00:09.388Z,21.70
2017-06-04T21:02:36.935Z,17.87
2017-06-04T21:05:04.483Z,16.30
2017-06-04T21:07:32.033Z,15.13
2017-06-04T21:10:00.449Z,12.37
2017-06-04T21:12:33.315Z,12.03
2017-06-04T21:15:00.866Z,12.63
2017-06-04T21:17:28.667Z,12.07
2017-06-04T21:19:56.212Z,14.30
2017-06-04T21:22:23.756Z,16.60
2017-06-04T21:24:51.311Z,17.50
2017-06-04T21:27:18.863Z,19.20
2017-06-04T21:29:46.420Z,20.17
2017-06-04T21:32:13.967Z,19.53
2017-06-04T21:34:42.271Z,17.57
2017-06-04T21:37:09.812Z,17.77
2017-06-04T21:39:37.359Z,17.53
2017-06-04T21:42:05.674Z,17.20
2017-06-04T21:44:33.215Z,19.97
2017-06-04T21:47:00.756Z,18.80
2017-06-04T21:49:29.066Z,19.67
2017-06-04T21:51:56.612Z,20.20
2017-06-04T21:54:24.166Z,19.83
2017-06-04T21:56:51.703Z,18.20
2017-06-04T21:59:20.007Z,20.67
2017-06-04T22:01:47.589Z,21.30
2017-06-04T22:04:15.141Z,23.47
2017-06-04T22:06:42.692Z,23.13
2017-06-04T22:09:10.251Z,26.40
2017-06-04T22:11:37.799Z,25.73
2017-06-04T22:14:05.344Z,29.80
2017-06-04T22:16:32.893Z,28.30
2017-06-04T22:19:01.207Z,30.40
2017-06-04T22:21:28.757Z,28.67
2017-06-04T22:23:56.293Z,30.00
2017-06-04T22:26:23.863Z,28.73
2017-06-04T22:28:51.406Z,27.07
2017-06-04T22:31:19.724Z,27.17
2017-06-04T22:33:47.281Z,26.90
2017-06-04T22:36:14.827Z,27.77
2017-06-04T22:38:42.384Z,30.17
2017-06-04T22:41:09.923Z,27.37
2017-06-04T22:43:37.480Z,32.53
2017-06-04T22:46:05.024Z,33.70
2017-06-04T22:48:33.343Z,29.67
2017-06-04T22:51:00.884Z,29.03
2017-06-04T22:53:28.436Z,26.57
2017-06-04T22:55:55.992Z,23.40
2017-06-04T22:58:23.544Z,21.97
2017-06-04T23:00:51.856Z,20.40
2017-06-04T23:03:19.411Z,21.10
2017-06-04T23:05:46.960Z,20.80
2017-06-04T23:08:14.530Z,20.63
2017-06-04T23:10:42.077Z,18.53
2017-06-04T23:13:09.619Z,20.57
2017-06-04T23:15:37.923Z,20.43
2017-06-04T23:18:05.465Z,19.20
2017-06-04T23:20:33.067Z,19.97
2017-06-04T23:23:00.612Z,18.57
2017-06-04T23:25:28.156Z,19.27
2017-06-04T23:27:55.705Z,18.40
2017-06-04T23:30:23.295Z,19.90
2017-06-04T23:32:50.849Z,17.20
2017-06-04T23:35:18.393Z,17.93
2017-06-04T23:37:45.931Z,17.90
2017-06-04T23:40:13.474Z,17.90
2017-06-04T23:42:41.777Z,17.27
2017-06-04T23:45:09.332Z,17.90
2017-06-04T23:47:36.880Z,18.73
2017-06-04T23:50:04.435Z,17.03
2017-06-04T23:52:31.984Z,18.47
2017-06-04T23:55:00.292Z,17.33
2017-06-04T23:57:27.849Z,18.90
2017-06-04T23:59:55.393Z,17.07
